sensor_id;sensor_type;location;lat;lon;timestamp;pressure;altitude;pressure_sealevel;temperature;humidity
36242;BME280;22283;42.748;12.732;2024-01-07T00:04:58;95869.22;;;9.07;100.00
36242;BME280;22283;42.748;12.732;2024-01-07T00:09:59;95864.59;;;9.09;100.00
36242;BME280;22283;42.748;12.732;2024-01-07T00:15:00;95863.59;;;9.10;100.00
36242;BME280;22283;42.748;12.732;2024-01-07T00:20:01;95868.72;;;9.11;100.00
36242;BME280;22283;42.748;12.732;2024-01-07T00:25:02;95862.63;;;9.11;100.00
36242;BME280;22283;42.748;12.732;2024-01-07T00:30:03;95856.84;;;9.07;100.00
36242;BME280;22283;42.748;12.732;2024-01-07T00:35:04;95860.31;;;9.08;100.00
36242;BME280;22283;42.748;12.732;2024-01-07T00:40:05;95868.22;;;9.08;100.00
36242;BME280;22283;42.748;12.732;2024-01-07T00:45:07;95858.66;;;9.07;100.00
36242;BME280;22283;42.748;12.732;2024-01-07T00:50:09;95865.06;;;9.04;100.00
36242;BME280;22283;42.748;12.732;2024-01-07T00:55:10;95878.00;;;8.90;100.00
36242;BME280;22283;42.748;12.732;2024-01-07T01:00:11;95865.78;;;8.80;100.00
36242;BME280;22283;42.748;12.732;2024-01-07T01:05:12;95871.03;;;8.80;100.00
36242;BME280;22283;42.748;12.732;2024-01-07T01:10:13;95880.56;;;8.73;100.00
36242;BME280;22283;42.748;12.732;2024-01-07T01:15:18;95878.91;;;8.72;100.00
36242;BME280;22283;42.748;12.732;2024-01-07T01:20:18;95877.25;;;8.71;100.00
36242;BME280;22283;42.748;12.732;2024-01-07T01:25:19;95876.63;;;8.77;100.00
36242;BME280;22283;42.748;12.732;2024-01-07T01:30:20;95874.66;;;8.79;100.00
36242;BME280;22283;42.748;12.732;2024-01-07T01:35:20;95864.44;;;8.76;100.00
36242;BME280;22283;42.748;12.732;2024-01-07T01:40:21;95878.66;;;8.83;100.00
36242;BME280;22283;42.748;12.732;2024-01-07T01:45:22;95882.94;;;8.84;100.00
36242;BME280;22283;42.748;12.732;2024-01-07T01:50:22;95869.06;;;8.82;100.00
36242;BME280;22283;42.748;12.732;2024-01-07T01:55:23;95876.00;;;8.83;100.00
36242;BME280;22283;42.748;12.732;2024-01-07T02:00:24;95874.84;;;8.86;100.00
36242;BME280;22283;42.748;12.732;2024-01-07T02:05:24;95867.94;;;8.85;100.00
36242;BME280;22283;42.748;12.732;2024-01-07T02:10:25;95881.28;;;8.83;100.00
36242;BME280;22283;42.748;12.732;2024-01-07T02:15:26;95879.94;;;8.79;100.00
36242;BME280;22283;42.748;12.732;2024-01-07T02:20:27;95875.50;;;8.80;100.00
36242;BME280;22283;42.748;12.732;2024-01-07T02:25:28;95875.03;;;8.84;100.00
36242;BME280;22283;42.748;12.732;2024-01-07T02:30:29;95880.94;;;8.86;100.00
36242;BME280;22283;42.748;12.732;2024-01-07T02:35:29;95866.47;;;8.91;100.00
36242;BME280;22283;42.748;12.732;2024-01-07T02:40:30;95865.50;;;8.92;100.00
36242;BME280;22283;42.748;12.732;2024-01-07T02:45:34;95867.19;;;9.01;100.00
36242;BME280;22283;42.748;12.732;2024-01-07T02:50:35;95867.81;;;8.95;100.00
36242;BME280;22283;42.748;12.732;2024-01-07T02:55:36;95857.91;;;8.89;100.00
36242;BME280;22283;42.748;12.732;2024-01-07T03:00:37;95868.28;;;8.90;100.00
36242;BME280;22283;42.748;12.732;2024-01-07T03:05:37;95859.41;;;8.91;100.00
36242;BME280;22283;42.748;12.732;2024-01-07T03:10:38;95853.25;;;8.82;100.00
36242;BME280;22283;42.748;12.732;2024-01-07T03:15:39;95851.94;;;8.86;100.00
36242;BME280;22283;42.748;12.732;2024-01-07T03:20:41;95859.19;;;8.84;100.00
36242;BME280;22283;42.748;12.732;2024-01-07T03:25:41;95860.50;;;8.80;100.00
36242;BME280;22283;42.748;12.732;2024-01-07T03:30:42;95849.44;;;8.77;100.00
36242;BME280;22283;42.748;12.732;2024-01-07T03:35:42;95855.53;;;8.77;100.00
36242;BME280;22283;42.748;12.732;2024-01-07T03:40:43;95859.47;;;8.73;100.00
36242;BME280;22283;42.748;12.732;2024-01-07T03:45:44;95856.16;;;8.71;100.00
36242;BME280;22283;42.748;12.732;2024-01-07T03:50:45;95865.03;;;8.70;100.00
36242;BME280;22283;42.748;12.732;2024-01-07T03:55:46;95866.63;;;8.63;100.00
36242;BME280;22283;42.748;12.732;2024-01-07T04:00:47;95870.78;;;8.66;100.00
36242;BME280;22283;42.748;12.732;2024-01-07T04:05:48;95860.72;;;8.61;100.00
36242;BME280;22283;42.748;12.732;2024-01-07T04:10:49;95866.97;;;8.60;100.00
36242;BME280;22283;42.748;12.732;2024-01-07T04:15:49;95866.59;;;8.55;100.00
36242;BME280;22283;42.748;12.732;2024-01-07T04:20:50;95857.81;;;8.46;100.00
36242;BME280;22283;42.748;12.732;2024-01-07T04:25:51;95868.56;;;8.53;100.00
36242;BME280;22283;42.748;12.732;2024-01-07T04:30:52;95867.44;;;8.55;100.00
36242;BME280;22283;42.748;12.732;2024-01-07T04:35:52;95868.25;;;8.56;100.00
36242;BME280;22283;42.748;12.732;2024-01-07T04:40:58;95881.28;;;8.57;100.00
36242;BME280;22283;42.748;12.732;2024-01-07T04:45:58;95873.53;;;8.56;100.00
36242;BME280;22283;42.748;12.732;2024-01-07T04:50:59;95880.75;;;8.54;100.00
36242;BME280;22283;42.748;12.732;2024-01-07T04:56:00;95888.34;;;8.57;100.00
36242;BME280;22283;42.748;12.732;2024-01-07T05:01:03;95876.47;;;8.53;100.00
36242;BME280;22283;42.748;12.732;2024-01-07T05:06:04;95882.72;;;8.52;100.00
36242;BME280;22283;42.748;12.732;2024-01-07T05:11:04;95884.69;;;8.50;100.00
36242;BME280;22283;42.748;12.732;2024-01-07T05:16:05;95894.75;;;8.54;100.00
36242;BME280;22283;42.748;12.732;2024-01-07T05:21:07;95898.22;;;8.55;100.00
36242;BME280;22283;42.748;12.732;2024-01-07T05:26:07;95899.19;;;8.54;100.00
36242;BME280;22283;42.748;12.732;2024-01-07T05:31:18;95896.56;;;8.54;100.00
36242;BME280;22283;42.748;12.732;2024-01-07T05:36:18;95903.19;;;8.58;100.00
36242;BME280;22283;42.748;12.732;2024-01-07T05:41:19;95907.63;;;8.57;100.00
36242;BME280;22283;42.748;12.732;2024-01-07T05:46:20;95913.72;;;8.58;100.00
36242;BME280;22283;42.748;12.732;2024-01-07T05:51:21;95922.25;;;8.52;100.00
36242;BME280;22283;42.748;12.732;2024-01-07T05:56:21;95910.72;;;8.53;100.00
36242;BME280;22283;42.748;12.732;2024-01-07T06:01:22;95919.94;;;8.49;100.00
36242;BME280;22283;42.748;12.732;2024-01-07T06:06:23;95914.97;;;8.46;100.00
36242;BME280;22283;42.748;12.732;2024-01-07T06:11:23;95923.69;;;8.46;100.00
36242;BME280;22283;42.748;12.732;2024-01-07T06:16:24;95927.78;;;8.41;100.00
36242;BME280;22283;42.748;12.732;2024-01-07T06:21:25;95939.66;;;8.45;100.00
36242;BME280;22283;42.748;12.732;2024-01-07T06:26:25;95928.31;;;8.44;100.00
36242;BME280;22283;42.748;12.732;2024-01-07T06:31:26;95933.88;;;8.41;100.00
36242;BME280;22283;42.748;12.732;2024-01-07T06:36:27;95931.41;;;8.40;100.00
36242;BME280;22283;42.748;12.732;2024-01-07T06:41:28;95928.06;;;8.37;100.00
36242;BME280;22283;42.748;12.732;2024-01-07T06:46:29;95929.72;;;8.38;100.00
36242;BME280;22283;42.748;12.732;2024-01-07T06:51:29;95938.31;;;8.41;100.00
36242;BME280;22283;42.748;12.732;2024-01-07T06:56:30;95939.66;;;8.45;100.00
36242;BME280;22283;42.748;12.732;2024-01-07T07:01:31;95948.56;;;8.44;100.00
36242;BME280;22283;42.748;12.732;2024-01-07T07:06:31;95947.19;;;8.40;100.00
36242;BME280;22283;42.748;12.732;2024-01-07T07:11:32;95956.47;;;8.44;100.00
36242;BME280;22283;42.748;12.732;2024-01-07T07:16:33;95968.66;;;8.45;100.00
36242;BME280;22283;42.748;12.732;2024-01-07T07:21:34;95971.41;;;8.43;100.00
36242;BME280;22283;42.748;12.732;2024-01-07T07:26:34;95974.06;;;8.43;100.00
36242;BME280;22283;42.748;12.732;2024-01-07T07:31:37;95977.66;;;8.42;100.00
36242;BME280;22283;42.748;12.732;2024-01-07T07:36:37;95995.13;;;8.43;100.00
36242;BME280;22283;42.748;12.732;2024-01-07T07:41:40;95986.03;;;8.37;100.00
36242;BME280;22283;42.748;12.732;2024-01-07T07:46:42;95987.38;;;8.42;100.00
36242;BME280;22283;42.748;12.732;2024-01-07T07:51:43;95993.03;;;8.47;100.00
36242;BME280;22283;42.748;12.732;2024-01-07T07:56:44;95990.38;;;8.47;100.00
36242;BME280;22283;42.748;12.732;2024-01-07T08:01:46;95985.34;;;8.53;100.00
36242;BME280;22283;42.748;12.732;2024-01-07T08:06:47;95996.13;;;8.60;100.00
36242;BME280;22283;42.748;12.732;2024-01-07T08:11:48;95996.13;;;8.60;100.00
36242;BME280;22283;42.748;12.732;2024-01-07T08:16:48;95991.44;;;8.54;100.00
36242;BME280;22283;42.748;12.732;2024-01-07T08:21:49;95998.06;;;8.58;100.00
36242;BME280;22283;42.748;12.732;2024-01-07T08:26:50;95999.72;;;8.59;100.00
36242;BME280;22283;42.748;12.732;2024-01-07T08:32:09;96023.84;;;8.64;100.00
36242;BME280;22283;42.748;12.732;2024-01-07T08:37:10;96026.31;;;8.66;100.00
36242;BME280;22283;42.748;12.732;2024-01-07T08:42:10;96022.47;;;8.60;100.00
36242;BME280;22283;42.748;12.732;2024-01-07T08:47:11;96021.13;;;8.56;100.00
36242;BME280;22283;42.748;12.732;2024-01-07T08:52:12;96033.75;;;8.70;100.00
36242;BME280;22283;42.748;12.732;2024-01-07T08:57:12;96034.81;;;8.77;100.00
36242;BME280;22283;42.748;12.732;2024-01-07T09:02:13;96031.19;;;8.78;100.00
36242;BME280;22283;42.748;12.732;2024-01-07T09:07:14;96037.44;;;8.77;100.00
36242;BME280;22283;42.748;12.732;2024-01-07T09:12:16;96044.31;;;8.70;100.00
36242;BME280;22283;42.748;12.732;2024-01-07T09:17:17;96049.50;;;8.80;100.00
36242;BME280;22283;42.748;12.732;2024-01-07T09:22:19;96050.78;;;8.76;100.00
36242;BME280;22283;42.748;12.732;2024-01-07T09:27:19;96053.97;;;8.79;100.00
36242;BME280;22283;42.748;12.732;2024-01-07T09:32:20;96055.91;;;8.77;100.00
36242;BME280;22283;42.748;12.732;2024-01-07T09:37:20;96049.13;;;8.75;100.00
36242;BME280;22283;42.748;12.732;2024-01-07T09:42:21;96053.09;;;8.79;100.00
36242;BME280;22283;42.748;12.732;2024-01-07T09:47:22;96058.59;;;8.85;100.00
36242;BME280;22283;42.748;12.732;2024-01-07T09:52:25;96057.31;;;8.90;100.00
36242;BME280;22283;42.748;12.732;2024-01-07T09:57:26;96045.28;;;8.87;100.00
36242;BME280;22283;42.748;12.732;2024-01-07T10:02:27;96045.78;;;8.91;100.00
36242;BME280;22283;42.748;12.732;2024-01-07T10:07:27;96053.25;;;8.95;100.00
36242;BME280;22283;42.748;12.732;2024-01-07T10:12:28;96045.50;;;8.94;100.00
36242;BME280;22283;42.748;12.732;2024-01-07T10:17:28;96057.78;;;9.03;100.00
36242;BME280;22283;42.748;12.732;2024-01-07T10:22:31;96057.16;;;9.09;100.00
36242;BME280;22283;42.748;12.732;2024-01-07T10:27:35;96056.50;;;9.07;100.00
36242;BME280;22283;42.748;12.732;2024-01-07T10:32:36;96052.22;;;9.14;100.00
36242;BME280;22283;42.748;12.732;2024-01-07T10:37:38;96044.72;;;9.19;100.00
36242;BME280;22283;42.748;12.732;2024-01-07T10:42:40;96054.63;;;9.25;100.00
36242;BME280;22283;42.748;12.732;2024-01-07T10:47:50;96044.88;;;9.26;100.00
36242;BME280;22283;42.748;12.732;2024-01-07T10:52:58;96039.56;;;9.44;100.00
36242;BME280;22283;42.748;12.732;2024-01-07T10:58:01;96029.22;;;9.50;100.00
36242;BME280;22283;42.748;12.732;2024-01-07T11:03:06;96024.41;;;9.46;100.00
36242;BME280;22283;42.748;12.732;2024-01-07T11:08:30;96022.22;;;9.41;100.00
36242;BME280;22283;42.748;12.732;2024-01-07T11:13:38;96020.59;;;9.40;100.00
36242;BME280;22283;42.748;12.732;2024-01-07T11:18:46;96017.63;;;9.43;100.00
36242;BME280;22283;42.748;12.732;2024-01-07T11:23:47;96002.59;;;9.35;100.00
36242;BME280;22283;42.748;12.732;2024-01-07T11:28:53;96000.97;;;9.43;100.00
36242;BME280;22283;42.748;12.732;2024-01-07T11:33:53;96006.59;;;9.48;100.00
36242;BME280;22283;42.748;12.732;2024-01-07T11:38:55;96028.25;;;9.51;100.00
36242;BME280;22283;42.748;12.732;2024-01-07T11:43:58;96012.03;;;9.46;100.00
36242;BME280;22283;42.748;12.732;2024-01-07T11:49:00;96003.16;;;9.47;100.00
36242;BME280;22283;42.748;12.732;2024-01-07T11:54:02;95999.84;;;9.53;100.00
36242;BME280;22283;42.748;12.732;2024-01-07T11:59:03;96003.34;;;9.62;100.00
36242;BME280;22283;42.748;12.732;2024-01-07T12:04:04;96003.72;;;9.67;100.00
36242;BME280;22283;42.748;12.732;2024-01-07T12:09:04;96016.94;;;9.67;100.00
36242;BME280;22283;42.748;12.732;2024-01-07T12:14:09;96004.06;;;9.72;100.00
36242;BME280;22283;42.748;12.732;2024-01-07T12:19:11;96018.97;;;9.90;100.00
36242;BME280;22283;42.748;12.732;2024-01-07T12:24:12;96018.03;;;9.91;100.00
36242;BME280;22283;42.748;12.732;2024-01-07T12:29:14;96014.97;;;9.77;100.00
36242;BME280;22283;42.748;12.732;2024-01-07T12:34:14;96014.63;;;9.72;100.00
36242;BME280;22283;42.748;12.732;2024-01-07T12:39:15;96015.06;;;9.59;100.00
36242;BME280;22283;42.748;12.732;2024-01-07T12:44:16;96024.56;;;9.44;100.00
36242;BME280;22283;42.748;12.732;2024-01-07T12:49:17;96023.38;;;9.39;100.00
36242;BME280;22283;42.748;12.732;2024-01-07T12:54:18;96016.34;;;9.21;100.00
36242;BME280;22283;42.748;12.732;2024-01-07T12:59:19;96012.72;;;9.22;100.00
36242;BME280;22283;42.748;12.732;2024-01-07T13:04:20;96016.03;;;9.24;100.00
36242;BME280;22283;42.748;12.732;2024-01-07T13:09:21;96027.63;;;9.31;100.00
36242;BME280;22283;42.748;12.732;2024-01-07T13:14:21;96026.47;;;9.34;100.00
36242;BME280;22283;42.748;12.732;2024-01-07T13:19:22;96027.72;;;9.22;100.00
36242;BME280;22283;42.748;12.732;2024-01-07T13:24:23;96045.50;;;9.46;100.00
36242;BME280;22283;42.748;12.732;2024-01-07T13:29:24;96040.44;;;9.52;100.00
36242;BME280;22283;42.748;12.732;2024-01-07T13:34:25;96046.84;;;9.50;100.00
36242;BME280;22283;42.748;12.732;2024-01-07T13:39:26;96042.22;;;9.44;100.00
36242;BME280;22283;42.748;12.732;2024-01-07T13:44:26;96054.78;;;9.50;100.00
36242;BME280;22283;42.748;12.732;2024-01-07T13:49:27;96061.22;;;9.47;100.00
36242;BME280;22283;42.748;12.732;2024-01-07T13:54:28;96058.66;;;9.38;100.00
36242;BME280;22283;42.748;12.732;2024-01-07T13:59:29;96067.56;;;9.36;100.00
36242;BME280;22283;42.748;12.732;2024-01-07T14:04:30;96051.16;;;9.25;100.00
36242;BME280;22283;42.748;12.732;2024-01-07T14:09:30;96060.19;;;9.22;100.00
36242;BME280;22283;42.748;12.732;2024-01-07T14:14:31;96074.50;;;9.11;100.00
36242;BME280;22283;42.748;12.732;2024-01-07T14:19:33;96076.59;;;9.08;100.00
36242;BME280;22283;42.748;12.732;2024-01-07T14:24:33;96084.16;;;9.03;100.00
36242;BME280;22283;42.748;12.732;2024-01-07T14:29:34;96094.31;;;8.98;100.00
36242;BME280;22283;42.748;12.732;2024-01-07T14:34:38;96092.44;;;8.90;100.00
36242;BME280;22283;42.748;12.732;2024-01-07T14:39:39;96094.25;;;8.90;100.00
36242;BME280;22283;42.748;12.732;2024-01-07T14:44:40;96098.16;;;8.85;100.00
36242;BME280;22283;42.748;12.732;2024-01-07T14:49:41;96091.91;;;8.86;100.00
36242;BME280;22283;42.748;12.732;2024-01-07T14:54:42;96099.44;;;8.81;100.00
36242;BME280;22283;42.748;12.732;2024-01-07T14:59:43;96107.88;;;8.85;100.00
36242;BME280;22283;42.748;12.732;2024-01-07T15:04:44;96110.44;;;8.95;100.00
36242;BME280;22283;42.748;12.732;2024-01-07T15:09:45;96104.03;;;8.97;100.00
36242;BME280;22283;42.748;12.732;2024-01-07T15:14:45;96102.97;;;8.90;100.00
36242;BME280;22283;42.748;12.732;2024-01-07T15:19:47;96121.38;;;9.00;100.00
36242;BME280;22283;42.748;12.732;2024-01-07T15:24:47;96129.88;;;8.94;100.00
36242;BME280;22283;42.748;12.732;2024-01-07T15:29:48;96133.59;;;8.83;100.00
36242;BME280;22283;42.748;12.732;2024-01-07T15:34:49;96128.38;;;8.73;100.00
36242;BME280;22283;42.748;12.732;2024-01-07T15:39:49;96144.47;;;8.70;100.00
36242;BME280;22283;42.748;12.732;2024-01-07T15:44:52;96150.06;;;8.67;100.00
36242;BME280;22283;42.748;12.732;2024-01-07T15:49:52;96147.56;;;8.66;100.00
36242;BME280;22283;42.748;12.732;2024-01-07T15:54:54;96157.13;;;8.49;100.00
36242;BME280;22283;42.748;12.732;2024-01-07T15:59:55;96153.50;;;8.50;100.00
36242;BME280;22283;42.748;12.732;2024-01-07T16:04:56;96164.03;;;8.50;100.00
36242;BME280;22283;42.748;12.732;2024-01-07T16:09:56;96162.38;;;8.49;100.00
36242;BME280;22283;42.748;12.732;2024-01-07T16:14:57;96153.13;;;8.45;100.00
36242;BME280;22283;42.748;12.732;2024-01-07T16:19:58;96173.50;;;8.43;100.00
36242;BME280;22283;42.748;12.732;2024-01-07T16:24:59;96176.28;;;8.41;100.00
36242;BME280;22283;42.748;12.732;2024-01-07T16:30:00;96180.03;;;8.38;100.00
36242;BME280;22283;42.748;12.732;2024-01-07T16:35:00;96191.28;;;8.41;100.00
36242;BME280;22283;42.748;12.732;2024-01-07T16:40:01;96194.31;;;8.36;100.00
36242;BME280;22283;42.748;12.732;2024-01-07T16:45:03;96187.69;;;8.32;100.00
36242;BME280;22283;42.748;12.732;2024-01-07T16:50:04;96199.19;;;8.31;100.00
36242;BME280;22283;42.748;12.732;2024-01-07T16:55:06;96209.88;;;8.29;100.00
36242;BME280;22283;42.748;12.732;2024-01-07T17:00:09;96214.16;;;8.30;100.00
36242;BME280;22283;42.748;12.732;2024-01-07T17:05:10;96224.03;;;8.28;100.00
36242;BME280;22283;42.748;12.732;2024-01-07T17:10:11;96209.59;;;8.23;100.00
36242;BME280;22283;42.748;12.732;2024-01-07T17:15:12;96233.75;;;8.28;100.00
36242;BME280;22283;42.748;12.732;2024-01-07T17:20:14;96234.84;;;8.25;100.00
36242;BME280;22283;42.748;12.732;2024-01-07T17:25:17;96227.22;;;8.22;100.00
36242;BME280;22283;42.748;12.732;2024-01-07T17:30:18;96240.78;;;8.27;100.00
36242;BME280;22283;42.748;12.732;2024-01-07T17:35:25;96241.63;;;8.28;100.00
36242;BME280;22283;42.748;12.732;2024-01-07T17:40:37;96249.00;;;8.24;100.00
36242;BME280;22283;42.748;12.732;2024-01-07T17:45:38;96247.31;;;8.23;100.00
36242;BME280;22283;42.748;12.732;2024-01-07T17:50:38;96250.09;;;8.22;100.00
36242;BME280;22283;42.748;12.732;2024-01-07T17:55:40;96253.44;;;8.14;100.00
36242;BME280;22283;42.748;12.732;2024-01-07T18:00:40;96268.81;;;8.19;100.00
36242;BME280;22283;42.748;12.732;2024-01-07T18:05:41;96270.34;;;8.21;100.00
36242;BME280;22283;42.748;12.732;2024-01-07T18:10:42;96263.00;;;8.25;100.00
36242;BME280;22283;42.748;12.732;2024-01-07T18:15:43;96264.53;;;8.18;100.00
36242;BME280;22283;42.748;12.732;2024-01-07T18:20:44;96272.28;;;8.19;100.00
36242;BME280;22283;42.748;12.732;2024-01-07T18:25:45;96274.78;;;8.21;100.00
36242;BME280;22283;42.748;12.732;2024-01-07T18:30:48;96283.53;;;8.21;100.00
36242;BME280;22283;42.748;12.732;2024-01-07T18:35:48;96285.06;;;8.24;100.00
36242;BME280;22283;42.748;12.732;2024-01-07T18:40:49;96292.53;;;8.28;100.00
36242;BME280;22283;42.748;12.732;2024-01-07T18:45:52;96296.13;;;8.27;100.00
36242;BME280;22283;42.748;12.732;2024-01-07T18:50:55;96298.06;;;8.25;100.00
36242;BME280;22283;42.748;12.732;2024-01-07T18:55:56;96304.75;;;8.20;100.00
36242;BME280;22283;42.748;12.732;2024-01-07T19:00:57;96310.53;;;8.23;100.00
36242;BME280;22283;42.748;12.732;2024-01-07T19:05:58;96303.63;;;8.22;100.00
36242;BME280;22283;42.748;12.732;2024-01-07T19:10:59;96316.78;;;8.22;100.00
36242;BME280;22283;42.748;12.732;2024-01-07T19:15:59;96310.69;;;8.22;100.00
36242;BME280;22283;42.748;12.732;2024-01-07T19:21:00;96313.88;;;8.25;100.00
36242;BME280;22283;42.748;12.732;2024-01-07T19:26:00;96318.44;;;8.23;100.00
36242;BME280;22283;42.748;12.732;2024-01-07T19:31:01;96313.88;;;8.25;100.00
36242;BME280;22283;42.748;12.732;2024-01-07T19:36:02;96320.69;;;8.28;100.00
36242;BME280;22283;42.748;12.732;2024-01-07T19:41:03;96326.78;;;8.28;100.00
36242;BME280;22283;42.748;12.732;2024-01-07T19:46:05;96322.47;;;8.27;100.00
36242;BME280;22283;42.748;12.732;2024-01-07T19:51:06;96337.59;;;8.25;100.00
36242;BME280;22283;42.748;12.732;2024-01-07T19:56:06;96343.84;;;8.24;100.00
36242;BME280;22283;42.748;12.732;2024-01-07T20:01:08;96345.94;;;8.21;100.00
36242;BME280;22283;42.748;12.732;2024-01-07T20:06:13;96351.19;;;8.21;100.00
36242;BME280;22283;42.748;12.732;2024-01-07T20:16:19;96353.13;;;8.19;100.00
36242;BME280;22283;42.748;12.732;2024-01-07T20:21:25;96362.00;;;8.18;100.00
36242;BME280;22283;42.748;12.732;2024-01-07T20:26:26;96364.78;;;8.16;100.00
36242;BME280;22283;42.748;12.732;2024-01-07T20:31:28;96371.56;;;8.19;100.00
36242;BME280;22283;42.748;12.732;2024-01-07T20:36:32;96369.34;;;8.14;100.00
36242;BME280;22283;42.748;12.732;2024-01-07T20:41:33;96385.16;;;8.14;100.00
36242;BME280;22283;42.748;12.732;2024-01-07T20:46:33;96381.13;;;8.10;100.00
36242;BME280;22283;42.748;12.732;2024-01-07T20:51:36;96385.72;;;8.08;100.00
36242;BME280;22283;42.748;12.732;2024-01-07T20:56:37;96385.72;;;8.08;100.00
36242;BME280;22283;42.748;12.732;2024-01-07T21:01:37;96395.72;;;8.04;100.00
36242;BME280;22283;42.748;12.732;2024-01-07T21:06:38;96395.56;;;7.96;100.00
36242;BME280;22283;42.748;12.732;2024-01-07T21:11:39;96404.56;;;7.94;100.00
36242;BME280;22283;42.748;12.732;2024-01-07T21:16:40;96413.72;;;7.89;100.00
36242;BME280;22283;42.748;12.732;2024-01-07T21:21:40;96413.72;;;7.89;100.00
36242;BME280;22283;42.748;12.732;2024-01-07T21:26:41;96417.31;;;7.88;100.00
36242;BME280;22283;42.748;12.732;2024-01-07T21:31:42;96427.03;;;7.88;100.00
36242;BME280;22283;42.748;12.732;2024-01-07T21:36:43;96432.81;;;7.92;100.00
36242;BME280;22283;42.748;12.732;2024-01-07T21:41:44;96434.75;;;7.80;100.00
36242;BME280;22283;42.748;12.732;2024-01-07T21:46:47;96435.84;;;7.68;100.00
36242;BME280;22283;42.748;12.732;2024-01-07T21:51:47;96448.44;;;7.64;100.00
36242;BME280;22283;42.748;12.732;2024-01-07T21:56:48;96444.41;;;7.60;100.00
36242;BME280;22283;42.748;12.732;2024-01-07T22:01:50;96455.66;;;7.62;100.00
36242;BME280;22283;42.748;12.732;2024-01-07T22:06:51;96454.25;;;7.58;100.00
36242;BME280;22283;42.748;12.732;2024-01-07T22:11:51;96455.50;;;7.54;100.00
36242;BME280;22283;42.748;12.732;2024-01-07T22:16:53;96462.66;;;7.52;100.00
36242;BME280;22283;42.748;12.732;2024-01-07T22:21:54;96459.34;;;7.50;100.00
36242;BME280;22283;42.748;12.732;2024-01-07T22:26:55;96458.78;;;7.46;100.00
36242;BME280;22283;42.748;12.732;2024-01-07T22:31:55;96461.28;;;7.48;100.00
36242;BME280;22283;42.748;12.732;2024-01-07T22:36:56;96463.22;;;7.46;100.00
36242;BME280;22283;42.748;12.732;2024-01-07T22:41:56;96465.19;;;7.53;100.00
36242;BME280;22283;42.748;12.732;2024-01-07T22:46:57;96472.94;;;7.55;100.00
36242;BME280;22283;42.748;12.732;2024-01-07T22:51:58;96467.84;;;7.63;100.00
36242;BME280;22283;42.748;12.732;2024-01-07T22:56:58;96464.16;;;7.85;100.00
36242;BME280;22283;42.748;12.732;2024-01-07T23:02:00;96471.59;;;7.70;100.00
36242;BME280;22283;42.748;12.732;2024-01-07T23:07:01;96483.88;;;7.50;100.00
36242;BME280;22283;42.748;12.732;2024-01-07T23:12:02;96488.66;;;7.35;100.00
36242;BME280;22283;42.748;12.732;2024-01-07T23:17:03;96497.50;;;7.25;100.00
36242;BME280;22283;42.748;12.732;2024-01-07T23:22:04;96490.75;;;7.11;100.00
36242;BME280;22283;42.748;12.732;2024-01-07T23:27:05;96496.63;;;6.94;100.00
36242;BME280;22283;42.748;12.732;2024-01-07T23:32:06;96499.97;;;6.75;100.00
36242;BME280;22283;42.748;12.732;2024-01-07T23:37:07;96507.06;;;6.63;100.00
36242;BME280;22283;42.748;12.732;2024-01-07T23:42:08;96508.34;;;6.69;100.00
36242;BME280;22283;42.748;12.732;2024-01-07T23:47:08;96501.69;;;6.64;100.00
36242;BME280;22283;42.748;12.732;2024-01-07T23:52:09;96502.84;;;6.51;100.00
36242;BME280;22283;42.748;12.732;2024-01-07T23:57:10;96518.59;;;6.51;100.00
